createdAt,value
2017-06-09T17:51:58.321Z,24.10
2017-06-09T17:54:26.377Z,24.00
2017-06-09T17:56:54.041Z,23.90
2017-06-09T17:59:21.796Z,24.00
2017-06-09T18:01:49.860Z,23.90
2017-06-09T18:04:19.331Z,23.60
2017-06-09T18:06:47.809Z,22.60
2017-06-09T18:09:15.573Z,22.50
2017-06-09T18:11:43.253Z,22.10
2017-06-09T18:14:11.684Z,22.60
2017-06-09T18:16:39.364Z,22.60
2017-06-09T18:19:09.385Z,22.60
2017-06-09T18:21:37.816Z,22.70
2017-06-09T18:24:05.494Z,22.80
2017-06-09T18:26:33.255Z,22.40
2017-06-09T18:29:01.792Z,22.00
2017-06-09T18:31:29.766Z,21.90
2017-06-09T18:33:57.879Z,22.20
2017-06-09T18:36:25.659Z,22.40
2017-06-09T18:38:54.127Z,22.80
2017-06-09T18:41:21.822Z,23.20
2017-06-09T18:43:49.486Z,23.20
2017-06-09T18:46:17.156Z,23.30
2017-06-09T18:48:46.341Z,23.30
2017-06-09T18:51:14.044Z,23.20
2017-06-09T18:53:42.480Z,23.20
2017-06-09T18:56:10.153Z,23.20
2017-06-09T18:58:37.970Z,23.20
2017-06-09T19:01:06.017Z,23.20
2017-06-09T19:03:34.472Z,23.10
2017-06-09T19:06:02.133Z,23.10
2017-06-09T19:08:29.856Z,23.10
2017-06-09T19:10:57.540Z,23.10
2017-06-09T19:13:25.222Z,23.00
2017-06-09T19:15:52.880Z,22.90
2017-06-09T19:18:20.553Z,22.90
2017-06-09T19:20:48.213Z,22.90
2017-06-09T19:23:16.234Z,22.90
2017-06-09T19:25:43.876Z,22.80
2017-06-09T19:28:11.579Z,22.80
2017-06-09T19:30:39.298Z,22.80
2017-06-09T19:33:07.730Z,22.90
2017-06-09T19:35:36.878Z,22.90
2017-06-09T19:38:04.574Z,22.90
2017-06-09T19:40:32.276Z,22.80
2017-06-09T19:42:59.929Z,22.80
2017-06-09T19:45:27.669Z,22.80
2017-06-09T19:47:55.414Z,22.70
2017-06-09T19:50:23.476Z,22.70
2017-06-09T19:52:51.137Z,22.70
2017-06-09T19:55:18.870Z,22.70
2017-06-09T19:57:46.544Z,22.60
2017-06-09T20:00:15.036Z,22.60
2017-06-09T20:02:43.037Z,22.60
2017-06-09T20:05:10.716Z,22.60
2017-06-09T20:07:38.835Z,22.50
2017-06-09T20:10:07.312Z,22.50
2017-06-09T20:12:35.745Z,22.50
2017-06-09T20:15:03.416Z,22.50
2017-06-09T20:17:31.082Z,22.50
2017-06-09T20:19:58.773Z,22.50
2017-06-09T20:22:27.307Z,22.40
2017-06-09T20:24:54.981Z,22.40
2017-06-09T20:27:22.622Z,22.40
2017-06-09T20:29:50.286Z,22.30
2017-06-09T20:32:17.948Z,22.30
2017-06-09T20:34:47.177Z,22.30
2017-06-09T20:37:14.850Z,22.30
2017-06-09T20:39:42.498Z,22.30
2017-06-09T20:42:10.195Z,22.20
2017-06-09T20:44:38.710Z,22.30
2017-06-09T20:47:06.752Z,22.20
2017-06-09T20:49:35.162Z,22.20
2017-06-09T20:52:02.925Z,22.20
2017-06-09T20:54:30.601Z,22.20
2017-06-09T20:56:58.285Z,22.30
2017-06-09T20:59:25.966Z,22.30
2017-06-09T21:01:54.440Z,22.30
2017-06-09T21:04:22.130Z,22.30
2017-06-09T21:06:49.785Z,22.30
2017-06-09T21:09:19.532Z,22.20
2017-06-09T21:11:47.218Z,22.20
2017-06-09T21:14:14.920Z,22.20
2017-06-09T21:16:43.352Z,21.80
2017-06-09T21:19:11.088Z,21.80
2017-06-09T21:21:38.750Z,21.30
2017-06-09T21:24:06.413Z,20.80
2017-06-09T21:26:34.103Z,20.70
2017-06-09T21:29:01.777Z,20.10
